createdAt,value
2023-05-21T00:00:23.290Z,14.30
2023-05-21T00:02:51.382Z,14.20
2023-05-21T00:05:18.854Z,14.20
2023-05-21T00:07:47.103Z,14.20
2023-05-21T00:10:14.267Z,14.20
2023-05-21T00:12:41.874Z,14.20
2023-05-21T00:15:09.432Z,14.20
2023-05-21T00:17:36.954Z,14.30
2023-05-21T00:20:08.814Z,14.20
2023-05-21T00:22:36.281Z,14.30
2023-05-21T00:25:03.487Z,14.20
2023-05-21T00:27:30.313Z,14.20
2023-05-21T00:29:56.987Z,14.20
2023-05-21T00:32:23.845Z,14.20
2023-05-21T00:34:50.775Z,14.00
2023-05-21T00:37:17.500Z,14.10
2023-05-21T00:39:44.189Z,14.00
2023-05-21T00:42:10.813Z,14.00
2023-05-21T00:44:37.455Z,14.00
2023-05-21T00:47:06.465Z,14.00
2023-05-21T00:49:33.139Z,13.90
2023-05-21T00:52:01.572Z,14.00
2023-05-21T00:54:28.816Z,14.00
2023-05-21T00:56:56.228Z,14.00
2023-05-21T00:59:24.229Z,14.00
2023-05-21T01:01:56.076Z,14.00
2023-05-21T01:04:23.478Z,14.00
2023-05-21T01:06:50.181Z,13.90
2023-05-21T01:09:17.144Z,13.90
2023-05-21T01:11:50.038Z,13.90
2023-05-21T01:14:18.844Z,14.00
2023-05-21T01:16:48.240Z,14.00
2023-05-21T01:19:20.843Z,13.90
2023-05-21T01:21:52.754Z,14.00
2023-05-21T01:24:19.607Z,13.90
2023-05-21T01:26:46.642Z,13.90
2023-05-21T01:29:14.658Z,13.80
2023-05-21T01:31:48.762Z,13.80
2023-05-21T01:34:19.746Z,13.80
2023-05-21T01:36:55.544Z,13.90
2023-05-21T01:39:38.638Z,13.80
2023-05-21T01:42:10.684Z,13.80
2023-05-21T01:44:37.877Z,13.80
2023-05-21T01:47:05.743Z,13.80
2023-05-21T01:49:32.803Z,13.80
2023-05-21T01:51:59.546Z,13.80
2023-05-21T01:54:26.226Z,13.80
2023-05-21T01:56:52.889Z,13.80
2023-05-21T01:59:20.240Z,13.90
2023-05-21T02:01:47.188Z,13.80
2023-05-21T02:04:14.086Z,13.70
2023-05-21T02:06:41.697Z,13.70
2023-05-21T02:09:08.832Z,13.60
2023-05-21T02:11:35.648Z,13.70
2023-05-21T02:14:03.817Z,13.80
2023-05-21T02:16:30.545Z,13.70
2023-05-21T02:18:57.864Z,13.70
2023-05-21T02:21:24.650Z,13.70
2023-05-21T02:23:51.399Z,13.70
2023-05-21T02:26:18.066Z,13.70
2023-05-21T02:28:44.811Z,13.80
2023-05-21T02:31:12.488Z,13.70
2023-05-21T02:33:41.775Z,13.70
2023-05-21T02:36:13.233Z,13.70
2023-05-21T02:38:43.674Z,13.80
2023-05-21T02:41:12.486Z,13.80
2023-05-21T02:43:39.278Z,13.70
2023-05-21T02:46:07.655Z,13.70
2023-05-21T02:48:34.483Z,13.60
2023-05-21T02:51:01.162Z,13.60
2023-05-21T02:53:27.873Z,13.60
2023-05-21T02:55:54.574Z,13.60
2023-05-21T02:58:23.475Z,13.60
2023-05-21T03:00:50.259Z,13.60
2023-05-21T03:03:17.080Z,13.60
2023-05-21T03:05:45.749Z,13.60
2023-05-21T03:08:12.493Z,13.60
2023-05-21T03:10:39.209Z,13.50
2023-05-21T03:13:08.199Z,13.40
2023-05-21T03:15:38.809Z,13.50
2023-05-21T03:18:05.725Z,13.50
2023-05-21T03:20:33.566Z,13.50
2023-05-21T03:23:00.510Z,13.50
2023-05-21T03:25:27.276Z,13.50
2023-05-21T03:27:53.939Z,13.50
2023-05-21T03:30:20.684Z,13.40
2023-05-21T03:32:47.848Z,13.40
2023-05-21T03:35:14.595Z,13.50
2023-05-21T03:37:41.547Z,13.50
2023-05-21T03:40:08.726Z,13.50
2023-05-21T03:42:35.462Z,13.50
2023-05-21T03:45:03.071Z,13.50
2023-05-21T03:47:29.768Z,13.50
2023-05-21T03:49:56.479Z,13.50
2023-05-21T03:52:23.171Z,13.50
2023-05-21T03:54:49.842Z,13.50
2023-05-21T03:57:16.660Z,13.50
2023-05-21T03:59:43.293Z,13.60
2023-05-21T04:02:09.943Z,13.60
2023-05-21T04:04:37.097Z,13.60
2023-05-21T04:07:04.636Z,13.60
2023-05-21T04:09:31.347Z,13.60
2023-05-21T04:11:58.043Z,13.60
2023-05-21T04:14:24.676Z,13.60
2023-05-21T04:16:51.384Z,13.50
2023-05-21T04:19:18.052Z,13.50
2023-05-21T04:21:44.998Z,13.50
2023-05-21T04:24:11.942Z,13.50
2023-05-21T04:26:42.055Z,13.60
2023-05-21T04:29:09.855Z,13.60
2023-05-21T04:31:36.726Z,13.70
2023-05-21T04:34:03.661Z,13.70
2023-05-21T04:36:30.400Z,13.80
2023-05-21T04:38:57.079Z,13.80
2023-05-21T04:41:23.743Z,13.80
2023-05-21T04:43:55.025Z,13.80
2023-05-21T04:46:25.404Z,13.80
2023-05-21T04:48:55.064Z,13.90
2023-05-21T04:51:26.732Z,14.10
2023-05-21T04:53:53.866Z,14.00
2023-05-21T04:56:22.442Z,14.10
2023-05-21T04:58:49.398Z,14.20
2023-05-21T05:01:16.176Z,14.10
2023-05-21T05:03:42.977Z,14.20
2023-05-21T05:06:28.685Z,14.30
2023-05-21T05:08:55.477Z,14.30
2023-05-21T05:11:22.405Z,14.40
2023-05-21T05:13:49.176Z,14.50
2023-05-21T05:16:18.427Z,14.40
2023-05-21T05:18:45.303Z,14.40
2023-05-21T05:21:12.152Z,14.40
2023-05-21T05:23:38.816Z,14.50
2023-05-21T05:26:05.582Z,14.50
2023-05-21T05:28:32.279Z,14.50
2023-05-21T05:30:59.254Z,14.60
2023-05-21T05:33:25.978Z,14.60
2023-05-21T05:35:52.667Z,14.70
2023-05-21T05:38:19.536Z,14.80
2023-05-21T05:40:46.240Z,14.80
2023-05-21T05:43:12.923Z,14.90
2023-05-21T05:45:39.754Z,14.90
2023-05-21T05:48:07.028Z,15.00
2023-05-21T05:50:33.696Z,15.00
2023-05-21T05:53:00.398Z,15.00
2023-05-21T05:55:27.182Z,15.10
2023-05-21T05:57:53.856Z,15.20
2023-05-21T06:00:20.576Z,15.20
2023-05-21T06:02:48.269Z,15.20
2023-05-21T06:05:15.242Z,15.10
2023-05-21T06:07:42.607Z,15.00
2023-05-21T06:10:09.985Z,15.00
2023-05-21T06:12:36.796Z,15.00
2023-05-21T06:15:04.000Z,15.20
2023-05-21T06:17:31.708Z,15.40
2023-05-21T06:19:58.414Z,15.50
2023-05-21T06:22:25.651Z,15.50
2023-05-21T06:24:52.597Z,15.70
2023-05-21T06:27:19.295Z,15.70
2023-05-21T06:29:46.262Z,15.80
2023-05-21T06:32:13.351Z,15.90
2023-05-21T06:34:40.024Z,17.50
2023-05-21T06:37:06.736Z,16.20
2023-05-21T06:39:33.432Z,16.30
2023-05-21T06:42:00.115Z,16.20
2023-05-21T06:44:26.760Z,16.20
2023-05-21T06:46:53.425Z,16.30
2023-05-21T06:49:20.103Z,16.50
2023-05-21T06:51:46.834Z,16.60
2023-05-21T06:54:13.524Z,16.70
2023-05-21T06:56:40.643Z,16.80
2023-05-21T06:59:07.274Z,16.70
2023-05-21T07:01:34.441Z,16.80
2023-05-21T07:04:01.213Z,16.90
2023-05-21T07:06:27.865Z,17.00
2023-05-21T07:08:54.546Z,16.90
2023-05-21T07:11:21.641Z,16.90
2023-05-21T07:13:48.408Z,17.30
2023-05-21T07:16:17.015Z,17.10
2023-05-21T07:18:43.721Z,17.00
2023-05-21T07:21:10.533Z,17.00
2023-05-21T07:23:37.216Z,17.10
2023-05-21T07:26:03.947Z,17.20
2023-05-21T07:28:30.762Z,17.30
2023-05-21T07:30:57.811Z,17.40
2023-05-21T07:33:24.495Z,17.50
2023-05-21T07:35:51.423Z,17.50
2023-05-21T07:38:18.081Z,17.60
2023-05-21T07:40:44.782Z,17.70
2023-05-21T07:43:12.115Z,17.70
2023-05-21T07:45:38.979Z,17.80
2023-05-21T07:48:06.074Z,17.70
2023-05-21T07:50:32.870Z,17.80
2023-05-21T07:52:59.625Z,18.00
2023-05-21T07:55:26.334Z,18.00
2023-05-21T07:57:52.985Z,18.10
2023-05-21T08:00:23.110Z,18.40
2023-05-21T08:02:49.899Z,18.60
2023-05-21T08:05:16.685Z,18.80
2023-05-21T08:07:43.477Z,18.70
2023-05-21T08:10:10.467Z,18.70
2023-05-21T08:12:37.119Z,18.80
2023-05-21T08:15:04.138Z,18.90
2023-05-21T08:17:30.803Z,19.00
2023-05-21T08:19:57.575Z,19.00
2023-05-21T08:22:24.297Z,19.10
2023-05-21T08:24:50.951Z,19.30
2023-05-21T08:27:17.626Z,17.50
2023-05-21T08:29:44.302Z,19.20
2023-05-21T08:32:10.983Z,19.20
2023-05-21T08:34:37.702Z,19.10
2023-05-21T08:37:04.747Z,19.10
2023-05-21T08:39:31.387Z,19.20
2023-05-21T08:42:09.661Z,19.30
2023-05-21T08:44:42.075Z,18.20
2023-05-21T08:47:11.376Z,19.50
2023-05-21T08:49:38.108Z,19.50
2023-05-21T08:52:06.121Z,19.50
2023-05-21T08:54:33.136Z,19.60
2023-05-21T08:57:00.631Z,19.50
2023-05-21T08:59:27.485Z,19.60
2023-05-21T09:01:54.646Z,19.70
2023-05-21T09:04:22.003Z,19.80
2023-05-21T09:06:49.380Z,19.80
2023-05-21T09:09:34.122Z,19.80
2023-05-21T09:12:01.337Z,19.80
2023-05-21T09:14:28.791Z,19.80
2023-05-21T09:16:55.638Z,19.80
2023-05-21T09:19:22.624Z,19.90
2023-05-21T09:21:52.347Z,21.80
2023-05-21T09:24:22.916Z,20.00
2023-05-21T09:26:49.711Z,20.00
2023-05-21T09:29:16.478Z,21.60
2023-05-21T09:31:46.556Z,20.00
2023-05-21T09:34:16.351Z,20.10
2023-05-21T09:36:43.901Z,20.20
2023-05-21T09:39:27.970Z,20.30
2023-05-21T09:41:57.402Z,20.30
2023-05-21T09:44:24.320Z,20.40
2023-05-21T09:46:51.274Z,20.50
2023-05-21T09:49:28.032Z,22.90
2023-05-21T09:51:56.731Z,20.70
2023-05-21T09:54:24.718Z,21.10
2023-05-21T09:56:54.812Z,22.10
2023-05-21T09:59:22.222Z,21.00
2023-05-21T10:01:52.868Z,21.00
2023-05-21T10:04:21.722Z,21.00
2023-05-21T10:06:50.042Z,20.90
2023-05-21T10:09:19.330Z,21.00
2023-05-21T10:11:49.427Z,21.20
2023-05-21T10:14:23.377Z,21.30
2023-05-21T10:16:52.619Z,21.30
2023-05-21T10:19:20.186Z,21.40
2023-05-21T10:21:47.779Z,21.50
2023-05-21T10:24:15.349Z,21.50
2023-05-21T10:26:43.327Z,21.70
2023-05-21T10:29:10.362Z,21.70
2023-05-21T10:31:38.957Z,21.80
2023-05-21T10:34:06.401Z,21.80
2023-05-21T10:36:34.213Z,21.90
2023-05-21T10:39:02.608Z,22.10
2023-05-21T10:41:35.808Z,22.10
2023-05-21T10:44:21.340Z,22.30
2023-05-21T10:46:47.936Z,22.30
2023-05-21T10:49:41.751Z,22.30
2023-05-21T10:52:31.859Z,22.20
2023-05-21T10:55:01.670Z,22.20
2023-05-21T10:58:18.629Z,22.30
2023-05-21T11:00:45.495Z,22.50
2023-05-21T11:03:14.176Z,22.60
2023-05-21T11:05:50.777Z,22.70
2023-05-21T11:08:28.945Z,22.70
2023-05-21T11:11:00.256Z,22.60
2023-05-21T11:13:28.601Z,22.60
2023-05-21T11:15:58.472Z,22.70
2023-05-21T11:18:34.129Z,22.50
2023-05-21T11:21:07.693Z,22.70
2023-05-21T11:24:02.393Z,23.10
2023-05-21T11:26:48.989Z,23.10
2023-05-21T11:29:16.081Z,23.10
2023-05-21T11:31:59.024Z,23.20
2023-05-21T11:34:28.802Z,23.30
2023-05-21T11:37:17.585Z,23.20
2023-05-21T11:39:45.062Z,23.20
2023-05-21T11:42:11.782Z,23.20
2023-05-21T11:44:41.965Z,23.40
2023-05-21T11:47:10.224Z,23.50
2023-05-21T11:49:38.333Z,23.50
2023-05-21T11:52:09.835Z,23.50
2023-05-21T11:54:46.232Z,23.60
2023-05-21T11:57:17.267Z,23.70
2023-05-21T11:59:53.500Z,23.80
2023-05-21T12:02:22.382Z,24.10
2023-05-21T12:04:50.360Z,24.10
2023-05-21T12:07:19.217Z,24.20
2023-05-21T12:09:50.305Z,24.40
2023-05-21T12:12:22.332Z,24.40
2023-05-21T12:14:50.573Z,24.40
2023-05-21T12:17:19.106Z,24.40
2023-05-21T12:19:46.956Z,24.50
2023-05-21T12:22:16.451Z,24.40
2023-05-21T12:24:44.178Z,24.30
2023-05-21T12:27:12.901Z,24.20
2023-05-21T12:29:42.496Z,24.10
2023-05-21T12:32:19.350Z,24.10
2023-05-21T12:34:54.695Z,24.10
2023-05-21T12:37:31.313Z,24.20
2023-05-21T12:40:04.817Z,24.30
2023-05-21T12:42:35.111Z,24.30
2023-05-21T12:45:06.879Z,24.20
2023-05-21T12:47:33.833Z,24.10
2023-05-21T12:50:02.012Z,24.10
2023-05-21T12:52:30.945Z,24.10
2023-05-21T12:54:58.559Z,24.10
2023-05-21T12:57:36.024Z,24.20
2023-05-21T13:00:06.507Z,24.20
2023-05-21T13:02:41.328Z,24.20
2023-05-21T13:05:18.689Z,24.20
2023-05-21T13:07:50.999Z,24.10
2023-05-21T13:10:18.173Z,24.00
2023-05-21T13:12:45.971Z,24.10
2023-05-21T13:15:12.938Z,24.10
2023-05-21T13:17:39.708Z,24.10
2023-05-21T13:20:14.201Z,24.10
2023-05-21T13:22:42.936Z,24.00
2023-05-21T13:25:11.492Z,23.90
2023-05-21T13:27:39.053Z,24.00
2023-05-21T13:30:07.039Z,24.00
2023-05-21T13:32:34.291Z,24.00
2023-05-21T13:35:01.069Z,24.00
2023-05-21T13:37:27.992Z,24.00
2023-05-21T13:39:54.707Z,24.00
2023-05-21T13:42:21.416Z,24.00
2023-05-21T13:44:48.605Z,24.00
2023-05-21T13:47:15.645Z,24.00
2023-05-21T13:49:42.566Z,24.00
2023-05-21T13:52:09.571Z,24.00
2023-05-21T13:54:36.839Z,24.00
2023-05-21T13:57:04.137Z,24.10
2023-05-21T13:59:33.456Z,24.20
2023-05-21T14:02:00.828Z,24.20
2023-05-21T14:04:27.600Z,24.30
2023-05-21T14:06:54.304Z,24.30
2023-05-21T14:09:21.368Z,24.30
2023-05-21T14:11:48.033Z,24.40
2023-05-21T14:14:18.898Z,24.40
2023-05-21T14:16:47.154Z,24.40
2023-05-21T14:19:14.815Z,24.40
2023-05-21T14:21:41.862Z,24.50
2023-05-21T14:24:08.604Z,24.60
2023-05-21T14:26:37.518Z,24.60
2023-05-21T14:29:04.225Z,24.60
2023-05-21T14:31:31.285Z,24.70
2023-05-21T14:33:58.065Z,24.70
2023-05-21T14:36:24.740Z,24.70
2023-05-21T14:38:51.473Z,24.70
2023-05-21T14:41:18.217Z,24.70
2023-05-21T14:43:44.889Z,24.60
2023-05-21T14:46:11.575Z,24.70
2023-05-21T14:48:38.331Z,24.70
2023-05-21T14:51:05.028Z,24.70
2023-05-21T14:53:32.308Z,24.50
2023-05-21T14:55:59.047Z,24.60
2023-05-21T14:58:25.732Z,24.60
2023-05-21T15:00:52.473Z,24.40
2023-05-21T15:03:19.224Z,24.30
2023-05-21T15:05:46.003Z,24.30
2023-05-21T15:12:21.133Z,24.30
2023-05-21T15:14:47.856Z,24.30
2023-05-21T15:17:14.664Z,24.30
2023-05-21T15:19:41.373Z,24.30
2023-05-21T15:22:08.072Z,24.30
2023-05-21T15:24:34.735Z,24.30
2023-05-21T15:27:01.497Z,24.30
2023-05-21T15:29:28.173Z,24.40
2023-05-21T15:31:55.010Z,24.40
2023-05-21T15:34:21.768Z,24.30
2023-05-21T15:36:48.471Z,24.30
2023-05-21T15:39:15.210Z,24.40
2023-05-21T15:41:42.285Z,23.80
2023-05-21T15:44:08.991Z,24.30
2023-05-21T15:46:35.899Z,24.30
2023-05-21T15:49:02.696Z,24.30
2023-05-21T15:51:29.583Z,24.30
2023-05-21T15:53:56.330Z,24.20
2023-05-21T15:56:23.048Z,24.20
2023-05-21T15:58:49.694Z,24.20
2023-05-21T16:01:16.527Z,24.30
2023-05-21T16:03:43.371Z,24.40
2023-05-21T16:06:10.456Z,24.40
2023-05-21T16:08:37.575Z,24.30
2023-05-21T16:11:04.284Z,24.60
2023-05-21T16:13:30.935Z,24.70
2023-05-21T16:15:57.607Z,24.80
2023-05-21T16:18:24.236Z,24.80
2023-05-21T16:20:50.938Z,24.70
2023-05-21T16:23:17.633Z,24.70
2023-05-21T16:25:44.347Z,24.50
2023-05-21T16:28:12.197Z,24.40
2023-05-21T16:30:38.972Z,24.40
2023-05-21T16:33:06.063Z,24.50
2023-05-21T16:35:32.974Z,24.50
2023-05-21T16:37:59.929Z,24.30
2023-05-21T16:40:26.596Z,24.30
2023-05-21T16:42:53.636Z,24.40
2023-05-21T16:45:21.460Z,24.40
2023-05-21T16:47:50.094Z,24.30
2023-05-21T16:50:17.564Z,24.30
2023-05-21T16:52:44.338Z,24.20
2023-05-21T16:55:11.048Z,24.10
2023-05-21T16:57:37.938Z,24.00
2023-05-21T17:00:05.681Z,24.00
2023-05-21T17:02:32.391Z,24.00
2023-05-21T17:04:59.212Z,23.90
2023-05-21T17:07:26.720Z,23.80
2023-05-21T17:09:53.377Z,23.80
2023-05-21T17:12:20.194Z,23.80
2023-05-21T17:14:46.938Z,23.90
2023-05-21T17:17:13.663Z,23.90
2023-05-21T17:19:40.764Z,24.00
2023-05-21T17:22:08.354Z,23.90
2023-05-21T17:24:35.079Z,23.70
2023-05-21T17:27:01.775Z,23.70
2023-05-21T17:29:28.604Z,23.60
2023-05-21T17:31:55.475Z,23.70
2023-05-21T17:34:26.166Z,23.60
2023-05-21T17:36:54.255Z,23.60
2023-05-21T17:39:21.060Z,23.60
2023-05-21T17:41:47.807Z,24.20
2023-05-21T17:44:16.871Z,23.60
2023-05-21T17:46:44.387Z,23.40
2023-05-21T17:49:11.158Z,23.30
2023-05-21T17:51:38.417Z,23.30
2023-05-21T17:54:05.704Z,23.30
2023-05-21T17:56:38.646Z,23.20
2023-05-21T17:59:06.722Z,23.10
2023-05-21T18:01:34.784Z,23.00
2023-05-21T18:04:03.586Z,23.00
2023-05-21T18:06:31.234Z,22.90
2023-05-21T18:08:58.261Z,22.90
2023-05-21T18:11:26.202Z,22.80
2023-05-21T18:13:54.018Z,22.80
2023-05-21T18:16:21.153Z,22.80
2023-05-21T18:18:47.944Z,22.70
2023-05-21T18:21:14.785Z,22.60
2023-05-21T18:23:41.464Z,22.70
2023-05-21T18:26:08.150Z,22.60
2023-05-21T18:28:35.533Z,22.60
2023-05-21T18:31:03.861Z,22.60
2023-05-21T18:33:31.308Z,22.50
2023-05-21T18:35:58.023Z,22.50
2023-05-21T18:38:25.020Z,21.10
2023-05-21T18:40:51.719Z,22.30
2023-05-21T18:43:18.493Z,22.40
2023-05-21T18:45:46.224Z,22.30
2023-05-21T18:48:13.163Z,22.40
2023-05-21T18:50:39.924Z,22.40
2023-05-21T18:53:06.570Z,22.40
2023-05-21T18:55:34.635Z,22.40
2023-05-21T18:58:01.397Z,22.40
2023-05-21T19:00:28.236Z,22.30
2023-05-21T19:02:56.085Z,22.30
2023-05-21T19:05:22.896Z,22.30
2023-05-21T19:07:49.677Z,22.30
2023-05-21T19:10:16.405Z,22.30
2023-05-21T19:12:43.693Z,22.30
2023-05-21T19:15:11.131Z,22.30
2023-05-21T19:17:39.700Z,22.30
2023-05-21T19:20:10.015Z,22.10
2023-05-21T19:22:39.818Z,22.00
2023-05-21T19:25:06.969Z,22.00
2023-05-21T19:27:33.671Z,22.00
2023-05-21T19:30:00.414Z,22.00
2023-05-21T19:32:27.166Z,22.80
2023-05-21T19:34:53.942Z,22.00
2023-05-21T19:37:20.715Z,22.00
2023-05-21T19:39:49.965Z,21.90
2023-05-21T19:42:17.696Z,21.90
2023-05-21T19:44:44.452Z,21.90
2023-05-21T19:47:11.169Z,21.90
2023-05-21T19:49:38.068Z,21.90
2023-05-21T19:52:05.345Z,21.80
2023-05-21T19:54:32.205Z,21.80
2023-05-21T19:56:59.041Z,21.70
2023-05-21T19:59:26.261Z,21.70
2023-05-21T20:01:52.986Z,21.70
2023-05-21T20:04:19.853Z,21.70
2023-05-21T20:06:46.713Z,21.60
2023-05-21T20:09:13.776Z,21.60
2023-05-21T20:11:42.218Z,21.50
2023-05-21T20:14:08.947Z,21.50
2023-05-21T20:16:36.534Z,21.50
2023-05-21T20:19:03.727Z,21.50
2023-05-21T20:21:31.832Z,21.50
2023-05-21T20:23:58.699Z,21.50
2023-05-21T20:26:26.391Z,21.50
2023-05-21T20:28:53.254Z,21.50
2023-05-21T20:31:20.412Z,21.40
2023-05-21T20:33:50.318Z,21.40
2023-05-21T20:36:17.849Z,21.30
2023-05-21T20:38:45.464Z,21.30
2023-05-21T20:41:13.002Z,21.30
2023-05-21T20:43:39.815Z,21.30
2023-05-21T20:46:06.533Z,21.30
2023-05-21T20:48:33.782Z,21.30
2023-05-21T20:51:01.410Z,21.40
2023-05-21T20:53:28.076Z,21.30
2023-05-21T20:55:54.849Z,21.20
2023-05-21T20:58:23.882Z,21.10
2023-05-21T21:00:50.807Z,21.10
2023-05-21T21:03:18.313Z,21.00
2023-05-21T21:05:45.391Z,21.10
2023-05-21T21:08:12.273Z,21.00
2023-05-21T21:10:41.227Z,21.00
2023-05-21T21:13:08.358Z,20.90
2023-05-21T21:15:35.581Z,20.90
2023-05-21T21:18:02.510Z,20.90
2023-05-21T21:20:29.326Z,20.90
2023-05-21T21:22:56.161Z,20.80
2023-05-21T21:25:22.832Z,20.80
2023-05-21T21:27:49.502Z,20.80
2023-05-21T21:30:16.263Z,20.80
2023-05-21T21:32:43.232Z,20.80
2023-05-21T21:35:10.238Z,20.80
2023-05-21T21:37:36.944Z,20.70
2023-05-21T21:40:04.002Z,20.60
2023-05-21T21:42:30.698Z,20.60
2023-05-21T21:44:57.350Z,20.60
2023-05-21T21:47:24.028Z,20.70
2023-05-21T21:49:50.920Z,20.70
2023-05-21T21:52:18.862Z,20.60
2023-05-21T21:54:45.706Z,20.70
2023-05-21T21:57:12.410Z,20.60
2023-05-21T21:59:39.486Z,20.50
2023-05-21T22:02:06.235Z,20.60
2023-05-21T22:04:32.933Z,20.60
2023-05-21T22:06:59.670Z,20.60
2023-05-21T22:09:26.362Z,20.60
2023-05-21T22:11:53.416Z,20.60
2023-05-21T22:14:20.130Z,20.60
2023-05-21T22:16:53.077Z,20.60
2023-05-21T22:19:22.106Z,20.60
2023-05-21T22:21:49.147Z,20.60
2023-05-21T22:24:30.930Z,20.50
2023-05-21T22:26:58.549Z,20.50
2023-05-21T22:29:25.530Z,20.40
2023-05-21T22:31:52.267Z,20.40
2023-05-21T22:34:18.941Z,20.40
2023-05-21T22:36:46.661Z,20.30
2023-05-21T22:39:13.433Z,20.30
2023-05-21T22:41:40.429Z,20.30
2023-05-21T22:44:07.091Z,20.30
2023-05-21T22:46:35.317Z,20.30
2023-05-21T22:49:02.494Z,20.30
2023-05-21T22:51:34.583Z,20.30
2023-05-21T22:54:01.797Z,20.30
2023-05-21T22:56:28.929Z,20.30
2023-05-21T22:58:56.276Z,20.20
2023-05-21T23:01:23.360Z,20.30
2023-05-21T23:03:51.520Z,20.30
2023-05-21T23:06:18.489Z,20.30
2023-05-21T23:08:45.278Z,20.30
2023-05-21T23:11:11.953Z,20.10
2023-05-21T23:13:38.643Z,21.30
2023-05-21T23:16:05.913Z,20.20
2023-05-21T23:18:32.818Z,20.20
2023-05-21T23:20:59.581Z,20.20
2023-05-21T23:23:26.356Z,20.10
2023-05-21T23:25:53.130Z,20.10
2023-05-21T23:28:19.833Z,20.00
2023-05-21T23:30:46.709Z,20.00
2023-05-21T23:33:13.885Z,20.00
2023-05-21T23:35:40.784Z,20.10
2023-05-21T23:38:07.476Z,20.10
2023-05-21T23:40:34.180Z,20.20
2023-05-21T23:43:01.160Z,20.10
2023-05-21T23:45:27.887Z,20.10
2023-05-21T23:47:54.560Z,20.10
2023-05-21T23:50:21.274Z,20.10
2023-05-21T23:52:48.047Z,20.10
2023-05-21T23:55:14.943Z,20.10
2023-05-21T23:57:41.730Z,20.10
